createdAt,value
2023-06-17T00:00:42.919Z,97204.28
2023-06-17T00:03:10.204Z,97223.84
2023-06-17T00:05:37.523Z,97203.66
2023-06-17T00:08:04.292Z,97207.94
2023-06-17T00:10:31.296Z,97204.94
2023-06-17T00:12:59.761Z,97210.84
2023-06-17T00:15:26.616Z,97208.75
2023-06-17T00:17:53.453Z,97190.75
2023-06-17T00:20:21.597Z,97189.72
2023-06-17T00:22:48.682Z,97190.72
2023-06-17T00:25:15.659Z,97197.44
2023-06-17T00:27:42.400Z,97215.56
2023-06-17T00:30:09.649Z,97195.59
2023-06-17T00:32:37.287Z,97192.97
2023-06-17T00:35:07.182Z,97208.44
2023-06-17T00:37:34.020Z,97198.91
2023-06-17T00:40:00.890Z,97185.13
2023-06-17T00:42:27.726Z,97202.19
2023-06-17T00:44:54.575Z,97189.06
2023-06-17T00:47:21.345Z,97194.03
2023-06-17T00:49:48.597Z,97183.16
2023-06-17T00:52:31.635Z,97185.09
2023-06-17T00:55:02.645Z,97185.72
2023-06-17T00:57:30.526Z,97182.06
2023-06-17T00:59:57.290Z,97174.69
2023-06-17T01:02:27.168Z,97179.78
2023-06-17T01:04:55.368Z,97178.94
2023-06-17T01:07:59.790Z,97192.41
2023-06-17T01:10:38.677Z,97184.97
2023-06-17T01:13:06.478Z,97173.56
2023-06-17T01:15:36.928Z,97172.16
2023-06-17T01:18:06.397Z,97170.53
2023-06-17T01:20:37.488Z,97180.56
2023-06-17T01:23:06.644Z,97169.53
2023-06-17T01:25:34.464Z,97175.56
2023-06-17T01:28:17.267Z,97165.53
2023-06-17T01:30:49.191Z,97174.84
2023-06-17T01:33:16.551Z,97175.16
2023-06-17T01:35:51.746Z,97177.59
2023-06-17T01:38:28.988Z,97190.44
2023-06-17T01:41:08.344Z,97188.00
2023-06-17T01:43:35.868Z,97164.34
2023-06-17T01:46:03.385Z,97171.19
2023-06-17T01:48:30.079Z,97173.97
2023-06-17T01:50:56.760Z,97186.81
2023-06-17T01:53:26.046Z,97176.53
2023-06-17T01:55:53.484Z,97176.75
2023-06-17T01:58:20.251Z,97167.19
2023-06-17T02:00:46.962Z,97169.25
2023-06-17T02:03:13.916Z,97172.09
2023-06-17T02:05:40.751Z,97173.84
2023-06-17T02:08:07.387Z,97173.38
2023-06-17T02:10:34.238Z,97163.97
2023-06-17T02:13:02.762Z,97165.84
2023-06-17T02:15:29.453Z,97159.13
2023-06-17T02:17:56.630Z,97152.84
2023-06-17T02:20:23.929Z,97162.38
2023-06-17T02:22:50.943Z,97157.88
2023-06-17T02:25:18.203Z,97163.63
2023-06-17T02:27:44.948Z,97153.56
2023-06-17T02:30:12.309Z,97154.31
2023-06-17T02:32:38.991Z,97172.13
2023-06-17T02:35:06.319Z,97168.34
2023-06-17T02:37:32.952Z,97154.34
2023-06-17T02:39:59.622Z,97162.88
2023-06-17T02:42:26.407Z,97151.34
2023-06-17T02:44:53.096Z,97160.34
2023-06-17T02:47:19.833Z,97147.63
2023-06-17T02:49:46.590Z,97155.00
2023-06-17T02:52:13.357Z,97147.00
2023-06-17T02:54:40.095Z,97140.09
2023-06-17T02:57:06.847Z,97141.09
2023-06-17T02:59:34.855Z,97154.81
2023-06-17T03:02:01.721Z,97139.91
2023-06-17T03:04:36.047Z,97145.63
2023-06-17T03:07:06.532Z,97135.19
2023-06-17T03:09:33.864Z,97137.47
2023-06-17T03:12:00.907Z,97125.47
2023-06-17T03:14:28.606Z,97128.81
2023-06-17T03:16:55.453Z,97141.16
2023-06-17T03:19:23.720Z,97139.91
2023-06-17T03:21:51.410Z,97139.81
2023-06-17T03:24:18.240Z,97136.19
2023-06-17T03:26:46.297Z,97133.63
2023-06-17T03:29:13.257Z,97131.53
2023-06-17T03:31:40.276Z,97146.28
2023-06-17T03:34:07.234Z,97132.19
2023-06-17T03:36:35.100Z,97122.91
2023-06-17T03:39:02.049Z,97132.34
2023-06-17T03:41:28.829Z,97119.56
2023-06-17T03:43:55.618Z,97126.53
2023-06-17T03:46:22.632Z,97126.28
2023-06-17T03:48:49.612Z,97122.19
2023-06-17T03:51:18.223Z,97141.91
2023-06-17T03:53:47.399Z,97126.38
2023-06-17T03:56:15.169Z,97118.91
2023-06-17T03:58:42.239Z,97119.25
2023-06-17T04:01:13.555Z,97132.50
2023-06-17T04:03:44.441Z,97130.53
2023-06-17T04:06:11.316Z,97115.69
2023-06-17T04:08:38.727Z,97126.81
2023-06-17T04:11:06.526Z,97102.66
2023-06-17T04:13:33.569Z,97117.63
2023-06-17T04:16:01.688Z,97133.38
2023-06-17T04:18:29.630Z,97122.09
2023-06-17T04:20:58.019Z,97111.66
2023-06-17T04:23:25.736Z,97110.53
2023-06-17T04:25:53.077Z,97116.28
2023-06-17T04:28:20.956Z,97121.91
2023-06-17T04:30:49.364Z,97124.66
2023-06-17T04:33:16.285Z,97113.34
2023-06-17T04:35:43.814Z,97112.84
2023-06-17T04:38:11.856Z,97108.94
2023-06-17T04:40:39.159Z,97122.97
2023-06-17T04:43:07.291Z,97110.34
2023-06-17T04:45:36.551Z,97123.59
2023-06-17T04:48:07.675Z,97108.94
2023-06-17T04:50:35.030Z,97112.75
2023-06-17T04:53:05.385Z,97114.13
2023-06-17T04:55:37.038Z,97111.38
2023-06-17T04:58:05.273Z,97120.13
2023-06-17T05:00:32.349Z,97103.25
2023-06-17T05:02:59.522Z,97113.50
2023-06-17T05:05:26.541Z,97108.53
2023-06-17T05:07:53.476Z,97105.25
2023-06-17T05:10:20.588Z,97115.00
2023-06-17T05:12:47.827Z,97113.03
2023-06-17T05:15:14.649Z,97110.44
2023-06-17T05:17:44.791Z,97117.19
2023-06-17T05:20:12.336Z,97107.22
2023-06-17T05:22:40.734Z,97110.28
2023-06-17T05:25:11.172Z,97105.81
2023-06-17T05:27:39.908Z,97100.03
2023-06-17T05:30:07.722Z,97104.44
2023-06-17T05:32:36.930Z,97109.47
2023-06-17T05:35:09.105Z,97105.09
2023-06-17T05:37:36.466Z,97111.13
2023-06-17T05:40:03.507Z,97133.53
2023-06-17T05:42:33.472Z,97120.06
2023-06-17T05:45:10.304Z,97125.16
2023-06-17T05:47:37.800Z,97124.81
2023-06-17T05:50:05.926Z,97126.38
2023-06-17T05:52:33.023Z,97121.78
2023-06-17T05:55:00.238Z,97131.72
2023-06-17T05:57:27.457Z,97129.84
2023-06-17T05:59:54.904Z,97122.78
2023-06-17T06:02:22.033Z,97119.13
2023-06-17T06:04:48.741Z,97123.78
2023-06-17T06:07:15.599Z,97127.25
2023-06-17T06:09:42.401Z,97127.34
2023-06-17T06:12:09.459Z,97132.88
2023-06-17T06:14:36.397Z,97140.47
2023-06-17T06:17:04.729Z,97131.56
2023-06-17T06:19:50.183Z,97141.59
2023-06-17T06:22:18.378Z,97138.47
2023-06-17T06:24:47.249Z,97151.56
2023-06-17T06:27:14.568Z,97141.50
2023-06-17T06:29:42.295Z,97139.69
2023-06-17T06:32:14.561Z,97142.25
2023-06-17T06:34:50.986Z,97133.88
2023-06-17T06:37:20.471Z,97136.09
2023-06-17T06:39:48.815Z,97140.72
2023-06-17T06:42:18.347Z,97135.94
2023-06-17T06:44:45.884Z,97141.16
2023-06-17T06:47:15.086Z,97148.47
2023-06-17T06:49:42.037Z,97148.69
2023-06-17T06:52:09.007Z,97143.50
2023-06-17T06:54:35.958Z,97152.00
2023-06-17T06:57:02.894Z,97146.41
2023-06-17T06:59:30.033Z,97153.06
2023-06-17T07:01:57.818Z,97149.63
2023-06-17T07:04:24.930Z,97142.78
2023-06-17T07:06:53.192Z,97135.53
2023-06-17T07:09:20.264Z,97141.13
2023-06-17T07:11:46.981Z,97149.31
2023-06-17T07:14:13.686Z,97155.09
2023-06-17T07:16:40.363Z,97152.28
2023-06-17T07:19:07.018Z,97143.00
2023-06-17T07:21:33.615Z,97153.31
2023-06-17T07:24:00.229Z,97152.25
2023-06-17T07:26:26.848Z,97144.03
2023-06-17T07:28:53.532Z,97143.13
2023-06-17T07:31:20.154Z,97145.81
2023-06-17T07:33:46.864Z,97145.41
2023-06-17T07:36:13.474Z,97146.78
2023-06-17T07:38:40.115Z,97145.69
2023-06-17T07:41:06.702Z,97144.34
2023-06-17T07:43:35.823Z,97151.59
2023-06-17T07:49:45.988Z,97156.88
2023-06-17T07:56:04.976Z,97152.63
2023-06-17T07:58:31.629Z,97152.91
2023-06-17T08:00:58.251Z,97147.78
2023-06-17T08:03:30.489Z,97149.41
2023-06-17T08:05:58.303Z,97149.16
2023-06-17T08:08:24.932Z,97146.97
2023-06-17T08:10:51.665Z,97144.28
2023-06-17T08:13:18.247Z,97137.00
2023-06-17T08:15:44.926Z,97141.59
2023-06-17T08:18:11.647Z,97148.06
2023-06-17T08:20:38.325Z,97149.41
2023-06-17T08:23:05.019Z,97158.59
2023-06-17T08:25:33.217Z,97135.94
2023-06-17T08:31:49.877Z,97144.28
2023-06-17T08:38:23.898Z,97142.41
2023-06-17T08:40:50.647Z,97138.63
2023-06-17T08:43:20.591Z,97120.25
2023-06-17T08:45:49.880Z,97121.31
2023-06-17T08:48:17.109Z,97122.38
2023-06-17T08:50:46.124Z,97128.75
2023-06-17T08:53:14.418Z,97112.31
2023-06-17T08:55:41.233Z,97125.03
2023-06-17T08:58:08.690Z,97124.53
2023-06-17T09:00:36.594Z,97126.06
2023-06-17T09:03:07.705Z,97115.22
2023-06-17T09:05:34.411Z,97111.34
2023-06-17T09:08:01.387Z,97118.34
2023-06-17T09:10:28.012Z,97115.22
2023-06-17T09:12:58.983Z,97110.00
2023-06-17T09:15:25.524Z,97114.81
2023-06-17T09:17:54.710Z,97114.94
2023-06-17T09:20:21.855Z,97109.25
2023-06-17T09:22:49.407Z,97111.09
2023-06-17T09:25:17.219Z,97097.13
2023-06-17T09:30:45.342Z,97113.97
2023-06-17T09:33:20.128Z,97111.28
2023-06-17T09:35:48.270Z,97115.06
2023-06-17T09:38:21.330Z,97113.56
2023-06-17T09:40:49.412Z,97111.16
2023-06-17T09:43:26.031Z,97113.66
2023-06-17T09:46:02.941Z,97101.75
2023-06-17T09:48:38.688Z,97105.22
2023-06-17T09:51:06.721Z,97115.75
2023-06-17T09:53:35.434Z,97112.28
2023-06-17T09:56:03.770Z,97105.06
2023-06-17T09:58:31.991Z,97108.09
2023-06-17T10:01:01.773Z,97100.88
2023-06-17T10:03:28.896Z,97109.72
2023-06-17T10:06:04.423Z,97109.13
2023-06-17T10:08:31.951Z,97113.78
2023-06-17T10:11:00.870Z,97090.00
2023-06-17T10:13:29.961Z,97097.72
2023-06-17T10:15:56.944Z,97096.06
2023-06-17T10:18:24.565Z,97099.81
2023-06-17T10:20:51.959Z,97094.97
2023-06-17T10:23:23.301Z,97096.34
2023-06-17T10:25:49.926Z,97090.69
2023-06-17T10:28:16.966Z,97097.81
2023-06-17T10:34:32.915Z,97098.81
2023-06-17T10:37:43.365Z,97097.91
2023-06-17T10:40:26.588Z,97105.69
2023-06-17T10:43:16.718Z,97091.66
2023-06-17T10:45:56.990Z,97090.25
2023-06-17T10:48:31.658Z,97090.28
2023-06-17T10:51:03.140Z,97087.91
2023-06-17T10:53:32.020Z,97093.00
2023-06-17T10:56:00.709Z,97086.41
2023-06-17T10:58:32.044Z,97086.75
2023-06-17T11:01:06.712Z,97085.22
2023-06-17T11:03:33.967Z,97086.53
2023-06-17T11:06:02.390Z,97081.56
2023-06-17T11:08:34.125Z,97085.13
2023-06-17T11:11:17.844Z,97071.88
2023-06-17T11:13:48.298Z,97061.13
2023-06-17T11:16:14.969Z,97079.84
2023-06-17T11:18:43.335Z,97075.56
2023-06-17T11:21:10.765Z,97069.59
2023-06-17T11:23:39.824Z,97078.91
2023-06-17T11:26:08.305Z,97072.25
2023-06-17T11:28:36.435Z,97060.47
2023-06-17T11:31:03.984Z,97063.88
2023-06-17T11:33:32.154Z,97064.94
2023-06-17T11:35:58.828Z,97058.81
2023-06-17T11:38:27.529Z,97057.50
2023-06-17T11:40:58.931Z,97062.25
2023-06-17T11:43:29.016Z,97059.13
2023-06-17T11:45:57.697Z,97053.56
2023-06-17T11:48:28.933Z,97053.47
2023-06-17T11:51:01.068Z,97039.69
2023-06-17T11:53:44.796Z,97044.06
2023-06-17T11:56:11.462Z,97042.97
2023-06-17T11:58:41.042Z,97042.91
2023-06-17T12:01:08.665Z,97031.41
2023-06-17T12:03:36.063Z,97034.97
2023-06-17T12:06:03.219Z,97030.22
2023-06-17T12:08:36.671Z,97032.09
2023-06-17T12:11:10.759Z,97030.38
2023-06-17T12:13:43.945Z,97034.47
2023-06-17T12:16:28.980Z,97035.31
2023-06-17T12:18:55.699Z,97031.94
2023-06-17T12:21:23.206Z,97033.97
2023-06-17T12:23:52.092Z,97032.09
2023-06-17T12:26:19.354Z,97018.00
2023-06-17T12:28:46.408Z,97032.47
2023-06-17T12:31:13.829Z,97021.38
2023-06-17T12:33:40.819Z,97033.06
2023-06-17T12:36:08.298Z,97020.09
2023-06-17T12:38:34.969Z,97015.88
2023-06-17T12:41:02.124Z,97022.22
2023-06-17T12:43:32.007Z,97012.28
2023-06-17T12:46:02.496Z,97010.34
2023-06-17T12:48:30.122Z,97011.28
2023-06-17T12:50:57.166Z,97010.19
2023-06-17T12:53:24.319Z,97008.84
2023-06-17T12:55:51.988Z,97008.97
2023-06-17T12:58:18.566Z,97000.72
2023-06-17T13:00:45.992Z,96999.84
2023-06-17T13:03:13.783Z,96994.41
2023-06-17T13:05:41.314Z,96996.44
2023-06-17T13:08:08.351Z,96994.06
2023-06-17T13:10:35.035Z,97000.28
2023-06-17T13:13:01.683Z,97001.34
2023-06-17T13:15:30.716Z,96998.81
2023-06-17T13:17:57.622Z,96995.03
2023-06-17T13:20:24.727Z,96984.72
2023-06-17T13:22:51.808Z,96993.66
2023-06-17T13:25:18.491Z,96988.53
2023-06-17T13:27:45.146Z,96988.94
2023-06-17T13:30:13.410Z,96983.44
2023-06-17T13:36:26.790Z,96985.31
2023-06-17T13:38:53.614Z,96990.56
2023-06-17T13:41:21.354Z,96990.50
2023-06-17T13:43:48.095Z,96986.66
2023-06-17T13:46:15.249Z,96984.91
2023-06-17T13:48:43.316Z,96976.72
2023-06-17T13:51:09.912Z,96979.66
2023-06-17T13:53:36.717Z,96974.16
2023-06-17T13:56:03.536Z,96976.44
2023-06-17T13:58:30.163Z,96971.81
2023-06-17T14:00:57.417Z,96975.97
2023-06-17T14:03:24.283Z,96970.78
2023-06-17T14:05:51.002Z,96978.63
2023-06-17T14:08:17.741Z,96974.38
2023-06-17T14:10:44.351Z,96974.34
2023-06-17T14:13:11.035Z,96956.25
2023-06-17T14:15:37.626Z,96966.53
2023-06-17T14:18:04.393Z,96953.00
2023-06-17T14:20:31.103Z,96966.13
2023-06-17T14:22:58.862Z,96967.00
2023-06-17T14:25:28.313Z,96959.16
2023-06-17T14:27:54.923Z,96961.06
2023-06-17T14:30:21.910Z,96965.06
2023-06-17T14:32:49.814Z,96958.50
2023-06-17T14:35:18.726Z,96962.63
2023-06-17T14:37:47.148Z,96957.47
2023-06-17T14:40:14.425Z,96960.78
2023-06-17T14:42:41.737Z,96958.81
2023-06-17T14:45:13.033Z,96962.22
2023-06-17T14:47:40.578Z,96954.38
2023-06-17T14:50:09.038Z,96957.44
2023-06-17T14:52:36.139Z,96962.72
2023-06-17T14:55:02.806Z,96949.34
2023-06-17T14:57:31.502Z,96948.47
2023-06-17T15:00:00.047Z,96948.50
2023-06-17T15:02:49.024Z,96950.91
2023-06-17T15:05:17.538Z,96953.22
2023-06-17T15:07:44.227Z,96956.41
2023-06-17T15:10:11.150Z,96950.69
2023-06-17T15:12:39.892Z,96953.41
2023-06-17T15:15:07.033Z,96957.84
2023-06-17T15:17:33.657Z,96948.88
2023-06-17T15:20:00.275Z,96948.56
2023-06-17T15:22:27.822Z,96946.66
2023-06-17T15:24:54.491Z,96947.94
2023-06-17T15:27:21.043Z,96948.06
2023-06-17T15:29:47.655Z,96936.72
2023-06-17T15:32:14.297Z,96945.84
2023-06-17T15:34:40.932Z,96947.19
2023-06-17T15:37:08.183Z,96945.03
2023-06-17T15:39:36.071Z,96942.88
2023-06-17T15:42:03.084Z,96945.63
2023-06-17T15:44:29.649Z,96942.69
2023-06-17T15:46:56.490Z,96937.53
2023-06-17T15:49:23.140Z,96943.91
2023-06-17T15:51:49.713Z,96938.97
2023-06-17T15:54:16.569Z,96940.38
2023-06-17T15:56:47.030Z,96940.81
2023-06-17T15:59:13.719Z,96947.59
2023-06-17T16:01:40.317Z,96928.47
2023-06-17T16:04:16.899Z,96938.75
2023-06-17T16:06:43.651Z,96931.13
2023-06-17T16:09:10.245Z,96942.78
2023-06-17T16:11:36.851Z,96929.28
2023-06-17T16:14:03.570Z,96929.69
2023-06-17T16:16:30.816Z,96942.84
2023-06-17T16:18:57.422Z,96930.91
2023-06-17T16:25:14.059Z,96931.63
2023-06-17T16:27:41.778Z,96930.13
2023-06-17T16:30:09.376Z,96931.41
2023-06-17T16:32:35.964Z,96933.81
2023-06-17T16:35:02.699Z,96932.13
2023-06-17T16:37:29.324Z,96936.78
2023-06-17T16:39:56.078Z,96941.34
2023-06-17T16:42:22.687Z,96936.44
2023-06-17T16:44:49.293Z,96936.53
2023-06-17T16:47:16.345Z,96935.97
2023-06-17T16:49:43.066Z,96944.31
2023-06-17T16:52:09.715Z,96938.31
2023-06-17T16:54:36.333Z,96937.16
2023-06-17T16:57:03.358Z,96945.94
2023-06-17T16:59:30.034Z,96943.22
2023-06-17T17:01:56.686Z,96932.94
2023-06-17T17:04:23.345Z,96948.69
2023-06-17T17:06:49.912Z,96945.41
2023-06-17T17:09:16.571Z,96943.97
2023-06-17T17:11:43.356Z,96944.66
2023-06-17T17:14:10.003Z,96944.66
2023-06-17T17:16:36.747Z,96945.81
2023-06-17T17:19:03.428Z,96946.06
2023-06-17T17:21:30.556Z,96945.25
2023-06-17T17:23:57.432Z,96944.91
2023-06-17T17:26:24.097Z,96948.19
2023-06-17T17:28:51.008Z,96951.34
2023-06-17T17:31:17.695Z,96950.16
2023-06-17T17:33:45.169Z,96961.34
2023-06-17T17:36:13.164Z,96946.31
2023-06-17T17:38:40.904Z,96957.38
2023-06-17T17:41:07.471Z,96955.56
2023-06-17T17:43:34.174Z,96955.13
2023-06-17T17:46:02.693Z,96960.88
2023-06-17T17:48:29.386Z,96956.34
2023-06-17T17:50:56.128Z,96957.22
2023-06-17T17:53:22.906Z,96960.47
2023-06-17T17:55:49.576Z,96963.47
2023-06-17T17:58:17.358Z,96964.03
2023-06-17T18:00:43.976Z,96977.53
2023-06-17T18:03:10.783Z,96977.28
2023-06-17T18:05:37.554Z,96965.19
2023-06-17T18:08:04.344Z,96969.22
2023-06-17T18:10:30.989Z,96963.06
2023-06-17T18:12:57.572Z,96969.78
2023-06-17T18:15:24.241Z,96972.19
2023-06-17T18:17:51.025Z,96976.00
2023-06-17T18:20:17.667Z,96970.84
2023-06-17T18:22:44.281Z,96966.81
2023-06-17T18:25:11.215Z,96962.22
2023-06-17T18:27:39.101Z,96969.72
2023-06-17T18:30:06.412Z,96960.00
2023-06-17T18:32:33.120Z,96952.19
2023-06-17T18:34:59.815Z,96967.72
2023-06-17T18:37:27.194Z,96959.59
2023-06-17T18:39:53.815Z,96970.78
2023-06-17T18:42:20.408Z,96972.00
2023-06-17T18:44:47.026Z,96965.16
2023-06-17T18:47:13.827Z,96978.47
2023-06-17T18:49:41.740Z,96970.31
2023-06-17T18:52:08.478Z,96959.34
2023-06-17T18:54:35.117Z,96971.56
2023-06-17T18:57:01.939Z,96979.53
2023-06-17T18:59:28.549Z,96971.56
2023-06-17T19:01:55.314Z,96981.16
2023-06-17T19:04:22.000Z,96983.50
2023-06-17T19:06:50.435Z,96978.50
2023-06-17T19:09:17.142Z,96988.13
2023-06-17T19:11:43.820Z,96985.53
2023-06-17T19:14:11.828Z,96988.66
2023-06-17T19:16:38.687Z,96981.66
2023-06-17T19:19:05.565Z,96988.97
2023-06-17T19:21:32.364Z,96999.81
2023-06-17T19:23:59.062Z,96997.22
2023-06-17T19:26:25.847Z,97004.38
2023-06-17T19:28:52.710Z,96995.56
2023-06-17T19:31:26.026Z,97005.38
2023-06-17T19:33:53.676Z,96992.31
2023-06-17T19:36:20.413Z,97008.50
2023-06-17T19:38:47.054Z,97012.63
2023-06-17T19:41:13.712Z,97004.06
2023-06-17T19:43:40.439Z,97010.88
2023-06-17T19:46:09.179Z,97013.22
2023-06-17T19:48:36.143Z,97018.38
2023-06-17T19:51:02.797Z,97012.72
2023-06-17T19:53:29.407Z,97013.19
2023-06-17T19:55:56.245Z,97019.25
2023-06-17T19:58:22.913Z,97019.72
2023-06-17T20:00:49.582Z,97023.06
2023-06-17T20:03:16.718Z,97028.75
2023-06-17T20:05:45.926Z,97010.50
2023-06-17T20:08:13.143Z,97017.56
2023-06-17T20:10:40.297Z,97022.06
2023-06-17T20:13:06.939Z,97019.28
2023-06-17T20:15:33.899Z,97011.72
2023-06-17T20:18:00.702Z,97016.00
2023-06-17T20:20:28.684Z,97017.28
2023-06-17T20:22:55.397Z,97013.56
2023-06-17T20:25:22.425Z,97011.56
2023-06-17T20:27:49.177Z,97023.59
2023-06-17T20:30:16.047Z,97023.34
2023-06-17T20:32:42.740Z,97015.81
2023-06-17T20:35:09.793Z,97019.53
2023-06-17T20:37:37.160Z,97025.50
2023-06-17T20:40:04.869Z,97013.56
2023-06-17T20:42:31.518Z,97022.00
2023-06-17T20:44:58.116Z,97019.06
2023-06-17T20:47:24.826Z,97017.06
2023-06-17T20:49:51.462Z,97030.16
2023-06-17T20:52:18.398Z,97018.69
2023-06-17T20:54:44.954Z,97028.63
2023-06-17T20:57:12.147Z,97011.28
2023-06-17T20:59:38.756Z,97018.91
2023-06-17T21:02:05.633Z,97026.00
2023-06-17T21:04:32.231Z,97022.09
2023-06-17T21:06:58.921Z,97024.09
2023-06-17T21:09:26.067Z,97012.63
2023-06-17T21:11:53.051Z,97021.19
2023-06-17T21:14:19.776Z,97027.69
2023-06-17T21:16:46.420Z,97023.88
2023-06-17T21:19:13.125Z,97015.88
2023-06-17T21:21:39.870Z,97009.81
2023-06-17T21:24:06.568Z,97022.16
2023-06-17T21:26:33.252Z,97018.34
2023-06-17T21:28:59.853Z,97021.09
2023-06-17T21:31:26.485Z,97024.53
2023-06-17T21:33:54.373Z,97021.63
2023-06-17T21:36:21.582Z,97021.47
2023-06-17T21:38:48.189Z,97031.28
2023-06-17T21:41:14.805Z,97014.84
2023-06-17T21:43:41.457Z,97022.66
2023-06-17T21:46:08.161Z,97020.91
2023-06-17T21:48:34.805Z,97023.00
2023-06-17T21:51:01.408Z,97023.28
2023-06-17T21:53:28.048Z,97018.63
2023-06-17T21:55:54.732Z,97001.94
2023-06-17T21:58:21.414Z,97007.25
2023-06-17T22:00:50.325Z,97002.38
2023-06-17T22:03:17.371Z,97005.63
2023-06-17T22:05:43.977Z,96999.13
2023-06-17T22:08:10.594Z,97002.38
2023-06-17T22:10:37.214Z,97012.78
2023-06-17T22:13:03.900Z,97014.69
2023-06-17T22:15:30.552Z,97018.47
2023-06-17T22:17:57.298Z,97018.91
2023-06-17T22:20:24.403Z,97020.00
2023-06-17T22:22:51.237Z,97017.34
2023-06-17T22:25:17.850Z,97002.28
2023-06-17T22:27:44.580Z,97017.78
2023-06-17T22:30:11.443Z,97009.28
2023-06-17T22:32:38.461Z,97009.97
2023-06-17T22:35:05.917Z,97011.44
2023-06-17T22:37:32.663Z,97013.47
2023-06-17T22:39:59.307Z,97009.59
2023-06-17T22:42:25.952Z,97017.28
2023-06-17T22:44:52.698Z,97006.47
2023-06-17T22:47:19.450Z,97012.81
2023-06-17T22:49:46.509Z,97005.69
2023-06-17T22:52:13.270Z,96997.13
2023-06-17T22:54:39.889Z,97008.56
2023-06-17T22:57:07.126Z,97008.69
2023-06-17T22:59:33.779Z,96993.59
2023-06-17T23:02:02.269Z,97004.19
2023-06-17T23:04:29.244Z,96994.22
2023-06-17T23:06:55.926Z,97013.19
2023-06-17T23:09:22.511Z,97014.22
2023-06-17T23:11:49.165Z,96996.53
2023-06-17T23:14:15.810Z,97010.16
2023-06-17T23:16:42.408Z,97005.06
2023-06-17T23:19:09.256Z,97009.34
2023-06-17T23:21:37.934Z,97007.50
2023-06-17T23:24:04.973Z,97008.09
2023-06-17T23:26:33.669Z,97006.69
2023-06-17T23:29:00.436Z,96997.09
2023-06-17T23:31:27.528Z,97004.22
2023-06-17T23:33:54.798Z,97014.22
2023-06-17T23:36:22.458Z,96989.16
2023-06-17T23:38:49.597Z,97007.72
2023-06-17T23:41:16.549Z,97002.78
2023-06-17T23:43:43.182Z,96996.88
2023-06-17T23:46:11.883Z,97004.66
2023-06-17T23:48:38.641Z,97001.41
2023-06-17T23:51:05.382Z,97005.09
2023-06-17T23:53:31.968Z,97015.69
2023-06-17T23:55:58.593Z,97009.59
2023-06-17T23:58:26.297Z,97005.28
